createdAt,value
2017-09-01T00:00:03.557Z,16.92
2017-09-01T00:00:31.571Z,16.99
2017-09-01T00:00:59.588Z,16.98
2017-09-01T00:01:27.709Z,16.98
2017-09-01T00:01:55.840Z,16.97
2017-09-01T00:02:23.760Z,16.95
2017-09-01T00:02:51.663Z,16.99
2017-09-01T00:03:19.762Z,17.01
2017-09-01T00:03:47.859Z,16.98
2017-09-01T00:04:15.993Z,16.97
2017-09-01T00:04:44.033Z,16.97
2017-09-01T00:05:12.156Z,16.99
2017-09-01T00:05:40.284Z,16.97
2017-09-01T00:06:08.404Z,17.04
2017-09-01T00:06:36.119Z,17.02
2017-09-01T00:07:04.123Z,16.99
2017-09-01T00:07:32.202Z,17.01
2017-09-01T00:08:00.232Z,17.01
2017-09-01T00:08:28.363Z,17.04
2017-09-01T00:08:56.289Z,17.04
2017-09-01T00:09:24.286Z,17.01
2017-09-01T00:09:52.257Z,17.02
2017-09-01T00:10:20.281Z,17.1
2017-09-01T00:10:48.338Z,17.01
2017-09-01T00:11:16.456Z,17.05
2017-09-01T00:11:44.498Z,17.04
2017-09-01T00:12:12.649Z,16.99
2017-09-01T00:12:40.668Z,17.07
2017-09-01T00:13:08.803Z,16.98
2017-09-01T00:13:36.803Z,16.92
2017-09-01T00:14:04.743Z,16.94
2017-09-01T00:14:32.841Z,16.97
2017-09-01T00:15:00.761Z,16.94
2017-09-01T00:15:28.693Z,16.91
2017-09-01T00:15:56.733Z,16.97
2017-09-01T00:16:24.771Z,16.95
2017-09-01T00:16:52.813Z,16.94
2017-09-01T00:17:20.893Z,16.95
2017-09-01T00:17:48.994Z,16.95
2017-09-01T00:18:17.110Z,16.98
2017-09-01T00:18:45.106Z,16.94
2017-09-01T00:19:13.253Z,16.99
2017-09-01T00:19:41.256Z,16.98
2017-09-01T00:20:09.070Z,16.99
2017-09-01T00:20:36.928Z,17.01
2017-09-01T00:21:05.054Z,16.94
2017-09-01T00:21:32.880Z,16.99
2017-09-01T00:22:00.886Z,16.99
2017-09-01T00:22:28.903Z,16.99
2017-09-01T00:22:56.907Z,17.01
2017-09-01T00:23:24.940Z,17.07
2017-09-01T00:23:53.004Z,17.01
2017-09-01T00:24:21.142Z,17.01
2017-09-01T00:24:49.166Z,17.02
2017-09-01T00:25:17.169Z,17.01
2017-09-01T00:25:45.258Z,17.1
2017-09-01T00:26:13.421Z,17.04
2017-09-01T00:26:41.311Z,17.13
2017-09-01T00:27:09.336Z,17.13
2017-09-01T00:27:37.453Z,17.16
2017-09-01T00:28:05.557Z,17.16
2017-09-01T00:28:33.517Z,17.2
2017-09-01T00:29:01.506Z,17.14
2017-09-01T00:29:29.631Z,17.14
2017-09-01T00:29:57.766Z,17.14
2017-09-01T00:30:25.958Z,17.14
2017-09-01T00:30:55.548Z,17.13
2017-09-01T00:31:23.692Z,17.14
2017-09-01T00:31:51.793Z,17.17
2017-09-01T00:32:19.761Z,17.19
2017-09-01T00:32:47.756Z,17.12
2017-09-01T00:33:15.857Z,17.12
2017-09-01T00:33:43.951Z,17.2
2017-09-01T00:34:11.868Z,17.1
2017-09-01T00:34:39.833Z,17.16
2017-09-01T00:35:07.650Z,17.16
2017-09-01T00:35:35.745Z,17.05
2017-09-01T00:36:03.894Z,17.02
2017-09-01T00:36:31.983Z,17.1
2017-09-01T00:36:59.688Z,17.13
2017-09-01T00:37:27.698Z,17.16
2017-09-01T00:37:55.683Z,17.1
2017-09-01T00:38:23.717Z,17.13
2017-09-01T00:38:51.856Z,17.16
2017-09-01T00:39:19.882Z,17.16
2017-09-01T00:39:48.001Z,17.13
2017-09-01T00:40:16.145Z,17.04
2017-09-01T00:40:44.148Z,17.05
2017-09-01T00:41:12.137Z,16.99
2017-09-01T00:41:40.251Z,17.13
2017-09-01T00:42:08.371Z,17.04
2017-09-01T00:42:36.395Z,17.16
2017-09-01T00:43:04.382Z,17.12
2017-09-01T00:43:32.511Z,17.1
2017-09-01T00:44:00.434Z,17.1
2017-09-01T00:44:28.372Z,17.13
2017-09-01T00:44:56.472Z,17.16
2017-09-01T00:45:24.595Z,17.13
2017-09-01T00:45:52.491Z,17.12
2017-09-01T00:46:20.479Z,17.12
2017-09-01T00:46:48.592Z,17.14
2017-09-01T00:47:16.711Z,17.19
2017-09-01T00:47:44.516Z,17.17
2017-09-01T00:48:12.523Z,17.16
2017-09-01T00:48:40.649Z,17.05
2017-09-01T00:49:08.551Z,17.13
2017-09-01T00:49:36.570Z,17.04
2017-09-01T00:50:04.716Z,17.02
2017-09-01T00:50:32.743Z,17.12
2017-09-01T00:51:00.892Z,17.12
2017-09-01T00:51:28.793Z,17.12
2017-09-01T00:51:56.699Z,17.12
2017-09-01T00:52:24.705Z,17.16
2017-09-01T00:52:52.727Z,17.14
2017-09-01T00:53:20.732Z,17.13
2017-09-01T00:53:48.647Z,17.2
2017-09-01T00:54:16.753Z,17.19
2017-09-01T00:54:44.780Z,17.12
2017-09-01T00:55:12.813Z,17.16
2017-09-01T00:55:40.813Z,17.12
2017-09-01T00:56:08.950Z,17.14
2017-09-01T00:56:37.058Z,17.17
2017-09-01T00:57:05.196Z,17.12
2017-09-01T00:57:33.332Z,17.09
2017-09-01T00:58:01.556Z,17.14
2017-09-01T00:58:29.603Z,17.12
2017-09-01T00:58:57.623Z,17.1
2017-09-01T00:59:25.463Z,17.19
2017-09-01T00:59:53.450Z,17.19
2017-09-01T01:00:21.807Z,17.16
2017-09-01T01:00:49.914Z,17.14
2017-09-01T01:01:18.063Z,17.13
2017-09-01T01:01:46.233Z,17.14
2017-09-01T01:02:14.256Z,17.13
2017-09-01T01:02:42.312Z,17.07
2017-09-01T01:03:10.355Z,17.1
2017-09-01T01:03:38.481Z,17.1
2017-09-01T01:04:06.598Z,17.12
2017-09-01T01:04:34.628Z,17.07
2017-09-01T01:05:02.533Z,17.16
2017-09-01T01:05:30.320Z,17.1
2017-09-01T01:05:58.245Z,17.16
2017-09-01T01:06:26.338Z,17.14
2017-09-01T01:06:54.453Z,17.16
2017-09-01T01:07:22.345Z,17.12
2017-09-01T01:07:50.452Z,17.19
2017-09-01T01:08:18.297Z,17.19
2017-09-01T01:08:46.370Z,17.09
2017-09-01T01:09:14.298Z,17.13
2017-09-01T01:09:42.309Z,17.12
2017-09-01T01:10:10.410Z,17.13
2017-09-01T01:10:38.359Z,17.1
2017-09-01T01:11:06.493Z,17.13
2017-09-01T01:11:34.514Z,17.12
2017-09-01T01:12:02.518Z,17.14
2017-09-01T01:12:30.368Z,17.17
2017-09-01T01:12:58.390Z,17.14
2017-09-01T01:13:26.545Z,17.12
2017-09-01T01:13:54.584Z,17.2
2017-09-01T01:14:22.288Z,17.14
2017-09-01T01:14:50.194Z,17.13
2017-09-01T01:15:18.280Z,17.19
2017-09-01T01:15:46.402Z,17.14
2017-09-01T01:16:14.415Z,17.12
2017-09-01T01:16:42.573Z,17.2
2017-09-01T01:17:10.645Z,17.14
2017-09-01T01:17:38.653Z,17.14
2017-09-01T01:18:06.944Z,17.1
2017-09-01T01:18:35.056Z,17.17
2017-09-01T01:19:03.168Z,17.17
2017-09-01T01:19:31.172Z,17.2
2017-09-01T01:19:59.187Z,17.23
2017-09-01T01:20:27.192Z,17.19
2017-09-01T01:20:55.220Z,17.23
2017-09-01T01:21:23.135Z,17.23
2017-09-01T01:21:51.154Z,17.27
2017-09-01T01:22:19.070Z,17.24
2017-09-01T01:22:46.970Z,17.19
2017-09-01T01:23:15.092Z,17.22
2017-09-01T01:23:43.133Z,17.09
2017-09-01T01:24:11.229Z,17.14
2017-09-01T01:24:39.332Z,17.14
2017-09-01T01:25:07.332Z,17.09
2017-09-01T01:25:35.463Z,17.17
2017-09-01T01:26:03.580Z,17.16
2017-09-01T01:26:31.759Z,17.14
2017-09-01T01:26:59.765Z,17.14
2017-09-01T01:27:27.788Z,17.1
2017-09-01T01:27:55.828Z,17.05
2017-09-01T01:28:23.935Z,17.14
2017-09-01T01:28:51.938Z,17.04
2017-09-01T01:29:20.050Z,17.01
2017-09-01T01:29:48.099Z,17.01
2017-09-01T01:30:16.204Z,17.05
2017-09-01T01:30:44.297Z,17.02
2017-09-01T01:31:12.282Z,17.07
2017-09-01T01:31:40.384Z,17.05
2017-09-01T01:32:08.521Z,17.1
2017-09-01T01:32:36.468Z,17.01
2017-09-01T01:33:04.595Z,17.04
2017-09-01T01:33:32.616Z,17.05
2017-09-01T01:34:00.729Z,17.09
2017-09-01T01:34:28.864Z,17.07
2017-09-01T01:34:56.880Z,16.99
2017-09-01T01:35:24.911Z,17.1
2017-09-01T01:35:53.044Z,17.13
2017-09-01T01:36:21.201Z,17.1
2017-09-01T01:36:49.238Z,17.2
2017-09-01T01:37:17.253Z,17.09
2017-09-01T01:37:45.276Z,17.13
2017-09-01T01:38:13.403Z,17.12
2017-09-01T01:38:41.307Z,17.16
2017-09-01T01:39:09.230Z,17.12
2017-09-01T01:39:37.304Z,17.17
2017-09-01T01:40:05.317Z,17.13
2017-09-01T01:40:33.428Z,17.14
2017-09-01T01:41:01.434Z,17.13
2017-09-01T01:41:29.515Z,17.13
2017-09-01T01:41:57.522Z,17.14
2017-09-01T01:42:25.531Z,17.13
2017-09-01T01:42:53.540Z,17.19
2017-09-01T01:43:21.839Z,17.02
2017-09-01T01:43:49.878Z,17.01
2017-09-01T01:44:17.770Z,17.07
2017-09-01T01:44:45.801Z,17.02
2017-09-01T01:45:13.913Z,16.98
2017-09-01T01:45:42.003Z,16.98
2017-09-01T01:46:10.020Z,16.97
2017-09-01T01:46:38.094Z,16.86
2017-09-01T01:47:06.118Z,16.77
2017-09-01T01:47:34.132Z,16.76
2017-09-01T01:48:02.060Z,16.77
2017-09-01T01:48:30.319Z,16.8
2017-09-01T01:48:58.325Z,16.79
2017-09-01T01:49:26.318Z,16.77
2017-09-01T01:49:54.422Z,16.69
2017-09-01T01:50:22.322Z,16.72
2017-09-01T01:50:50.441Z,16.74
2017-09-01T01:51:18.559Z,16.72
2017-09-01T01:51:46.474Z,16.72
2017-09-01T01:52:14.597Z,16.72
2017-09-01T01:52:42.661Z,16.69
2017-09-01T01:53:10.781Z,16.73
2017-09-01T01:53:38.792Z,16.73
2017-09-01T01:54:06.918Z,16.65
2017-09-01T01:54:34.952Z,16.72
2017-09-01T01:55:03.094Z,16.73
2017-09-01T01:55:31.286Z,16.68
2017-09-01T01:55:59.390Z,16.69
2017-09-01T01:56:27.375Z,16.68
2017-09-01T01:56:55.465Z,16.72
2017-09-01T01:57:23.526Z,16.65
2017-09-01T01:57:51.632Z,16.61
2017-09-01T01:58:19.891Z,16.59
2017-09-01T01:58:47.787Z,16.57
2017-09-01T01:59:15.676Z,16.58
2017-09-01T01:59:43.696Z,16.61
2017-09-01T02:00:11.703Z,16.64
2017-09-01T02:00:39.766Z,16.58
2017-09-01T02:01:07.788Z,16.61
2017-09-01T02:01:35.773Z,16.61
2017-09-01T02:02:03.772Z,16.61
2017-09-01T02:02:31.711Z,16.59
2017-09-01T02:02:59.631Z,16.59
2017-09-01T02:03:27.735Z,16.68
2017-09-01T02:03:55.687Z,16.58
2017-09-01T02:04:23.500Z,16.62
2017-09-01T02:04:51.629Z,16.51
2017-09-01T02:05:19.627Z,16.58
2017-09-01T02:05:47.620Z,16.57
2017-09-01T02:06:15.651Z,16.54
2017-09-01T02:06:43.737Z,16.46
2017-09-01T02:07:11.761Z,16.47
2017-09-01T02:07:39.743Z,16.43
2017-09-01T02:08:07.694Z,16.47
2017-09-01T02:08:35.726Z,16.39
2017-09-01T02:09:03.734Z,16.37
2017-09-01T02:09:31.744Z,16.39
2017-09-01T02:09:59.840Z,16.4
2017-09-01T02:10:27.858Z,16.46
2017-09-01T02:10:56.067Z,16.44
2017-09-01T02:11:24.072Z,16.39
2017-09-01T02:11:52.061Z,16.36
2017-09-01T02:12:20.070Z,16.39
2017-09-01T02:12:47.890Z,16.34
2017-09-01T02:13:17.562Z,16.36
2017-09-01T02:13:45.595Z,16.37
2017-09-01T02:14:13.698Z,16.44
2017-09-01T02:14:41.793Z,16.44
2017-09-01T02:15:09.722Z,16.46
2017-09-01T02:15:37.776Z,16.46
2017-09-01T02:16:05.778Z,16.44
2017-09-01T02:16:33.856Z,16.4
2017-09-01T02:17:01.857Z,16.37
2017-09-01T02:17:29.970Z,16.54
2017-09-01T02:17:58.084Z,16.44
2017-09-01T02:18:26.037Z,16.32
2017-09-01T02:18:54.040Z,16.32
2017-09-01T02:19:22.154Z,16.37
2017-09-01T02:19:50.292Z,16.24
2017-09-01T02:20:18.306Z,16.22
2017-09-01T02:20:46.300Z,16.18
2017-09-01T02:21:14.292Z,16.13
2017-09-01T02:21:42.316Z,16.13
2017-09-01T02:22:10.222Z,16.09
2017-09-01T02:22:38.350Z,16.09
2017-09-01T02:23:06.410Z,16.06
2017-09-01T02:23:34.362Z,16.02
2017-09-01T02:24:02.369Z,16
2017-09-01T02:24:30.489Z,15.98
2017-09-01T02:24:58.516Z,16.02
2017-09-01T02:25:26.570Z,16.06
2017-09-01T02:25:54.600Z,15.99
2017-09-01T02:26:22.702Z,15.98
2017-09-01T02:26:50.822Z,16.02
2017-09-01T02:27:18.936Z,16.05
2017-09-01T02:27:46.933Z,16
2017-09-01T02:28:14.977Z,16
2017-09-01T02:28:43.073Z,16.06
2017-09-01T02:29:11.101Z,16.02
2017-09-01T02:29:39.217Z,16.09
2017-09-01T02:30:07.198Z,16.03
2017-09-01T02:30:35.326Z,16.1
2017-09-01T02:31:03.260Z,16.03
2017-09-01T02:31:31.286Z,16.05
2017-09-01T02:31:59.371Z,16.06
2017-09-01T02:32:27.324Z,16
2017-09-01T02:32:55.316Z,16.02
2017-09-01T02:33:23.609Z,16
2017-09-01T02:33:51.762Z,16.02
2017-09-01T02:34:19.754Z,15.94
2017-09-01T02:34:47.778Z,15.92
2017-09-01T02:35:15.888Z,15.94
2017-09-01T02:35:43.896Z,15.96
2017-09-01T02:36:11.927Z,15.92
2017-09-01T02:36:40.036Z,15.98
2017-09-01T02:37:08.038Z,15.98
2017-09-01T02:37:35.856Z,15.88
2017-09-01T02:38:03.900Z,15.88
2017-09-01T02:38:32.008Z,15.9
2017-09-01T02:39:00.127Z,15.92
2017-09-01T02:39:28.213Z,15.84
2017-09-01T02:39:56.135Z,15.84
2017-09-01T02:40:24.140Z,15.98
2017-09-01T02:40:52.068Z,15.92
2017-09-01T02:41:19.977Z,15.92
2017-09-01T02:41:48.098Z,15.92
2017-09-01T02:42:16.206Z,15.98
2017-09-01T02:42:44.116Z,15.94
2017-09-01T02:43:12.045Z,15.88
2017-09-01T02:43:40.256Z,15.9
2017-09-01T02:44:08.383Z,15.94
2017-09-01T02:44:36.491Z,15.96
2017-09-01T02:45:04.431Z,15.98
2017-09-01T02:45:32.417Z,15.98
2017-09-01T02:46:00.432Z,15.96
2017-09-01T02:46:28.445Z,15.92
2017-09-01T02:46:56.554Z,15.94
2017-09-01T02:47:24.671Z,15.91
2017-09-01T02:47:52.740Z,15.88
2017-09-01T02:48:20.857Z,16.05
2017-09-01T02:48:48.755Z,16.02
2017-09-01T02:49:16.748Z,15.94
2017-09-01T02:49:44.875Z,16
2017-09-01T02:50:12.965Z,15.98
2017-09-01T02:50:41.081Z,16.02
2017-09-01T02:51:08.982Z,16
2017-09-01T02:51:37.085Z,16.08
2017-09-01T02:52:05.089Z,16.06
2017-09-01T02:52:33.078Z,16.08
2017-09-01T02:53:01.057Z,16.05
2017-09-01T02:53:29.324Z,16.05
2017-09-01T02:53:57.357Z,16.05
2017-09-01T02:54:25.328Z,16.08
2017-09-01T02:54:53.380Z,16.06
2017-09-01T02:55:21.406Z,16.09
2017-09-01T02:55:49.420Z,16.09
2017-09-01T02:56:17.429Z,16.12
2017-09-01T02:56:45.557Z,16.16
2017-09-01T02:57:13.543Z,16.13
2017-09-01T02:57:41.447Z,16.16
2017-09-01T02:58:09.551Z,16.09
2017-09-01T02:58:37.661Z,16.13
2017-09-01T02:59:05.784Z,16.1
2017-09-01T02:59:33.702Z,16.13
2017-09-01T03:00:01.810Z,16.08
2017-09-01T03:00:29.825Z,16.05
2017-09-01T03:00:57.921Z,16.05
2017-09-01T03:01:25.932Z,16.08
2017-09-01T03:01:53.939Z,16.13
2017-09-01T03:02:21.825Z,16.03
2017-09-01T03:02:49.832Z,16.03
2017-09-01T03:03:17.858Z,16.03
2017-09-01T03:03:46.131Z,16.03
2017-09-01T03:04:14.136Z,16.1
2017-09-01T03:04:42.134Z,16.06
2017-09-01T03:05:10.141Z,16.08
2017-09-01T03:05:38.264Z,16.08
2017-09-01T03:06:06.378Z,16.08
2017-09-01T03:06:34.416Z,16.17
2017-09-01T03:07:02.495Z,16.17
2017-09-01T03:07:30.625Z,16.17
2017-09-01T03:07:58.637Z,16.18
2017-09-01T03:08:26.649Z,16.25
2017-09-01T03:08:54.672Z,16.16
2017-09-01T03:09:22.708Z,16.16
2017-09-01T03:09:50.718Z,16.16
2017-09-01T03:10:18.706Z,16.16
2017-09-01T03:10:46.740Z,16.08
2017-09-01T03:11:14.712Z,16.22
2017-09-01T03:11:42.836Z,16.09
2017-09-01T03:12:10.937Z,16.16
2017-09-01T03:12:39.068Z,16.06
2017-09-01T03:13:07.113Z,16.12
2017-09-01T03:13:35.224Z,16.1
2017-09-01T03:14:17.752Z,16.16
2017-09-01T03:14:45.745Z,16.09
2017-09-01T03:15:13.745Z,16.09
2017-09-01T03:15:41.850Z,16.03
2017-09-01T03:16:09.989Z,16.03
2017-09-01T03:16:38.085Z,16.02
2017-09-01T03:17:20.711Z,16.02
2017-09-01T03:17:48.830Z,16.05
2017-09-01T03:18:16.842Z,16.02
2017-09-01T03:18:44.977Z,15.96
2017-09-01T03:19:13.006Z,15.99
2017-09-01T03:19:41.122Z,15.91
2017-09-01T03:20:09.119Z,15.99
2017-09-01T03:20:37.136Z,15.92
2017-09-01T03:21:05.234Z,15.99
2017-09-01T03:21:33.383Z,15.94
2017-09-01T03:22:01.487Z,16
2017-09-01T03:22:29.590Z,16.06
2017-09-01T03:22:57.700Z,16.03
2017-09-01T03:23:25.698Z,16.02
2017-09-01T03:23:53.782Z,16
2017-09-01T03:24:21.802Z,16
2017-09-01T03:24:49.807Z,16.02
2017-09-01T03:25:17.811Z,16
2017-09-01T03:25:45.844Z,16
2017-09-01T03:26:13.958Z,15.9
2017-09-01T03:26:41.982Z,16.06
2017-09-01T03:27:09.994Z,16.02
2017-09-01T03:27:38.126Z,16
2017-09-01T03:28:06.249Z,16
2017-09-01T03:28:34.420Z,16.02
2017-09-01T03:29:02.428Z,16
2017-09-01T03:29:30.538Z,16.05
2017-09-01T03:29:58.556Z,16.03
2017-09-01T03:30:26.664Z,16.06
2017-09-01T03:30:54.667Z,16.05
2017-09-01T03:31:22.789Z,16.08
2017-09-01T03:31:50.903Z,16.06
2017-09-01T03:32:18.919Z,16.06
2017-09-01T03:32:46.916Z,16.06
2017-09-01T03:33:15.063Z,16.06
2017-09-01T03:33:43.268Z,16.09
2017-09-01T03:34:11.371Z,16.13
2017-09-01T03:34:39.493Z,16.09
2017-09-01T03:35:07.598Z,16.16
2017-09-01T03:35:35.585Z,16.13
2017-09-01T03:36:03.695Z,16.16
2017-09-01T03:36:31.677Z,16.17
2017-09-01T03:36:59.668Z,16.26
2017-09-01T03:37:27.701Z,16.17
2017-09-01T03:37:55.485Z,16.21
2017-09-01T03:38:23.633Z,16.29
2017-09-01T03:38:52.091Z,16.21
2017-09-01T03:39:19.994Z,16.29
2017-09-01T03:39:48.094Z,16.34
2017-09-01T03:40:16.078Z,16.25
2017-09-01T03:40:44.169Z,16.16
2017-09-01T03:41:12.071Z,16.22
2017-09-01T03:41:40.104Z,16.25
2017-09-01T03:42:08.007Z,16.24
2017-09-01T03:42:36.143Z,16.18
2017-09-01T03:43:04.247Z,16.26
2017-09-01T03:43:32.259Z,16.22
2017-09-01T03:44:00.292Z,16.31
2017-09-01T03:44:28.208Z,16.31
2017-09-01T03:44:56.358Z,16.31
2017-09-01T03:45:24.508Z,16.29
2017-09-01T03:45:52.587Z,16.24
2017-09-01T03:46:20.691Z,16.25
2017-09-01T03:46:48.806Z,16.25
2017-09-01T03:47:16.902Z,16.29
2017-09-01T03:47:45.038Z,16.26
2017-09-01T03:48:13.044Z,16.29
2017-09-01T03:48:41.040Z,16.34
2017-09-01T03:49:09.166Z,16.34
2017-09-01T03:49:36.959Z,16.28
2017-09-01T03:50:05.058Z,16.31
2017-09-01T03:50:33.113Z,16.32
2017-09-01T03:51:01.098Z,16.4
2017-09-01T03:51:29.200Z,16.28
2017-09-01T03:51:57.339Z,16.32
2017-09-01T03:52:25.451Z,16.31
2017-09-01T03:52:53.467Z,16.29
2017-09-01T03:53:21.460Z,16.26
2017-09-01T03:53:49.583Z,16.34
2017-09-01T03:54:17.406Z,16.26
2017-09-01T03:54:45.428Z,16.31
2017-09-01T03:55:13.429Z,16.32
2017-09-01T03:55:41.524Z,16.31
2017-09-01T03:56:09.631Z,16.36
2017-09-01T03:56:37.748Z,16.29
2017-09-01T03:57:05.653Z,16.37
2017-09-01T03:57:33.647Z,16.31
2017-09-01T03:58:01.750Z,16.37
2017-09-01T03:58:29.800Z,16.37
2017-09-01T03:58:57.909Z,16.49
2017-09-01T03:59:25.901Z,16.49
2017-09-01T03:59:53.910Z,16.46
2017-09-01T04:00:21.932Z,16.46
2017-09-01T04:00:49.951Z,16.43
2017-09-01T04:01:17.867Z,16.46
2017-09-01T04:01:45.970Z,16.49
2017-09-01T04:02:13.883Z,16.46
2017-09-01T04:02:41.999Z,16.46
2017-09-01T04:03:09.979Z,16.41
2017-09-01T04:03:38.198Z,16.49
2017-09-01T04:04:06.102Z,16.5
2017-09-01T04:04:34.197Z,16.54
2017-09-01T04:05:02.202Z,16.43
2017-09-01T04:05:30.320Z,16.5
2017-09-01T04:05:58.427Z,16.51
2017-09-01T04:06:26.534Z,16.54
2017-09-01T04:06:54.662Z,16.5
2017-09-01T04:07:22.660Z,16.57
2017-09-01T04:07:50.767Z,16.54
2017-09-01T04:08:18.673Z,16.55
2017-09-01T04:08:46.751Z,16.57
2017-09-01T04:09:14.765Z,16.39
2017-09-01T04:09:42.878Z,16.47
2017-09-01T04:10:11.014Z,16.41
2017-09-01T04:10:39.134Z,16.43
2017-09-01T04:11:07.136Z,16.41
2017-09-01T04:11:35.224Z,16.51
2017-09-01T04:12:03.209Z,16.44
2017-09-01T04:12:30.983Z,16.49
2017-09-01T04:12:58.781Z,16.47
2017-09-01T04:13:26.782Z,16.54
2017-09-01T04:13:54.992Z,16.5
2017-09-01T04:14:23.106Z,16.49
2017-09-01T04:14:51.193Z,16.43
2017-09-01T04:15:19.290Z,16.46
2017-09-01T04:15:47.306Z,16.4
2017-09-01T04:16:15.427Z,16.47
2017-09-01T04:16:43.542Z,16.4
2017-09-01T04:17:11.569Z,16.46
2017-09-01T04:17:39.469Z,16.41
2017-09-01T04:18:07.471Z,16.44
2017-09-01T04:18:35.587Z,16.37
2017-09-01T04:19:03.690Z,16.4
2017-09-01T04:19:31.843Z,16.44
2017-09-01T04:19:59.957Z,16.49
2017-09-01T04:20:28.057Z,16.54
2017-09-01T04:20:56.091Z,16.4
2017-09-01T04:21:24.212Z,16.47
2017-09-01T04:21:52.152Z,16.47
2017-09-01T04:22:20.149Z,16.44
2017-09-01T04:22:48.141Z,16.44
2017-09-01T04:23:16.242Z,16.39
2017-09-01T04:23:44.363Z,16.49
2017-09-01T04:24:12.479Z,16.44
2017-09-01T04:24:40.510Z,16.49
2017-09-01T04:25:08.529Z,16.46
2017-09-01T04:25:36.539Z,16.49
2017-09-01T04:26:04.431Z,16.32
2017-09-01T04:26:32.428Z,16.39
2017-09-01T04:27:00.451Z,16.37
2017-09-01T04:27:28.573Z,16.39
2017-09-01T04:27:56.509Z,16.46
2017-09-01T04:28:24.597Z,16.41
2017-09-01T04:28:52.950Z,16.46
2017-09-01T04:29:20.967Z,16.44
2017-09-01T04:29:48.996Z,16.37
2017-09-01T04:30:17.023Z,16.4
2017-09-01T04:30:45.031Z,16.43
2017-09-01T04:31:13.152Z,16.44
2017-09-01T04:31:41.189Z,16.46
2017-09-01T04:32:09.178Z,16.43
2017-09-01T04:32:37.093Z,16.46
2017-09-01T04:33:05.063Z,16.43
2017-09-01T04:33:32.982Z,16.4
2017-09-01T04:34:01.187Z,16.41
2017-09-01T04:34:29.200Z,16.43
2017-09-01T04:34:57.220Z,16.54
2017-09-01T04:35:25.129Z,16.43
2017-09-01T04:35:53.204Z,16.51
2017-09-01T04:36:21.094Z,16.51
2017-09-01T04:36:49.196Z,16.44
2017-09-01T04:37:17.221Z,16.55
2017-09-01T04:37:45.342Z,16.51
2017-09-01T04:38:13.469Z,16.54
2017-09-01T04:38:41.379Z,16.49
2017-09-01T04:39:09.680Z,16.44
2017-09-01T04:39:37.813Z,16.5
2017-09-01T04:40:05.905Z,16.59
2017-09-01T04:40:33.934Z,16.57
2017-09-01T04:41:01.955Z,16.5
2017-09-01T04:41:30.067Z,16.59
2017-09-01T04:41:58.190Z,16.61
2017-09-01T04:42:26.236Z,16.5
2017-09-01T04:42:54.386Z,16.57
2017-09-01T04:43:22.492Z,16.68
2017-09-01T04:43:50.492Z,16.54
2017-09-01T04:44:18.403Z,16.58
2017-09-01T04:44:46.569Z,16.62
2017-09-01T04:45:14.479Z,16.62
2017-09-01T04:45:42.599Z,16.59
2017-09-01T04:46:10.605Z,16.58
2017-09-01T04:46:38.721Z,16.58
2017-09-01T04:47:06.844Z,16.61
2017-09-01T04:47:34.941Z,16.61
2017-09-01T04:48:02.962Z,16.59
2017-09-01T04:48:30.951Z,16.55
2017-09-01T04:48:59.035Z,16.59
2017-09-01T04:49:27.039Z,16.57
2017-09-01T04:49:55.090Z,16.62
2017-09-01T04:50:23.142Z,16.65
2017-09-01T04:50:51.301Z,16.62
2017-09-01T04:51:19.215Z,16.64
2017-09-01T04:51:47.291Z,16.58
2017-09-01T04:52:15.305Z,16.57
2017-09-01T04:52:43.421Z,16.55
2017-09-01T04:53:11.422Z,16.61
2017-09-01T04:53:39.451Z,16.57
2017-09-01T04:54:07.580Z,16.62
2017-09-01T04:54:35.697Z,16.62
2017-09-01T04:55:03.810Z,16.54
2017-09-01T04:55:31.813Z,16.59
2017-09-01T04:55:59.810Z,16.62
2017-09-01T04:56:27.922Z,16.64
2017-09-01T04:56:55.807Z,16.61
2017-09-01T04:57:23.897Z,16.65
2017-09-01T04:57:52.032Z,16.57
2017-09-01T04:58:20.123Z,16.62
2017-09-01T04:58:47.812Z,16.64
2017-09-01T04:59:15.936Z,16.66
2017-09-01T04:59:43.980Z,16.57
2017-09-01T05:00:12.096Z,16.5
2017-09-01T05:00:40.109Z,16.49
2017-09-01T05:01:08.057Z,16.61
2017-09-01T05:01:36.176Z,16.58
2017-09-01T05:02:04.114Z,16.61
2017-09-01T05:02:32.222Z,16.58
2017-09-01T05:03:00.291Z,16.54
2017-09-01T05:03:28.395Z,16.51
2017-09-01T05:03:56.720Z,16.5
2017-09-01T05:04:24.830Z,16.5
2017-09-01T05:04:52.766Z,16.58
2017-09-01T05:05:20.756Z,16.59
2017-09-01T05:05:48.997Z,16.62
2017-09-01T05:06:16.919Z,16.57
2017-09-01T05:06:44.836Z,16.55
2017-09-01T05:07:12.955Z,16.49
2017-09-01T05:07:41.748Z,16.55
2017-09-01T05:08:09.857Z,16.54
2017-09-01T05:08:37.838Z,16.49
2017-09-01T05:09:05.955Z,16.57
2017-09-01T05:09:34.011Z,16.54
2017-09-01T05:10:01.993Z,16.57
2017-09-01T05:10:30.144Z,16.59
2017-09-01T05:10:58.380Z,16.58
2017-09-01T05:11:26.998Z,16.55
2017-09-01T05:11:55.299Z,16.5
2017-09-01T05:12:23.440Z,16.55
2017-09-01T05:12:51.419Z,16.57
2017-09-01T05:13:19.428Z,16.5
2017-09-01T05:14:02.052Z,16.5
2017-09-01T05:14:30.178Z,16.58
2017-09-01T05:14:58.203Z,16.55
2017-09-01T05:15:26.122Z,16.54
2017-09-01T05:15:54.119Z,16.51
2017-09-01T05:16:21.931Z,16.58
2017-09-01T05:16:49.922Z,16.58
2017-09-01T05:17:18.037Z,16.58
2017-09-01T05:17:46.071Z,16.58
2017-09-01T05:18:14.186Z,16.58
2017-09-01T05:18:42.100Z,16.58
2017-09-01T05:19:10.120Z,16.58
2017-09-01T05:19:38.231Z,16.59
2017-09-01T05:20:06.326Z,16.57
2017-09-01T05:20:34.347Z,16.57
2017-09-01T05:21:02.366Z,16.58
2017-09-01T05:21:30.380Z,16.57
2017-09-01T05:21:58.401Z,16.57
2017-09-01T05:22:26.529Z,16.57
2017-09-01T05:22:54.642Z,16.55
2017-09-01T05:23:22.603Z,16.5
2017-09-01T05:23:50.723Z,16.54
2017-09-01T05:24:18.858Z,16.55
2017-09-01T05:24:46.952Z,16.58
2017-09-01T05:25:14.859Z,16.49
2017-09-01T05:25:42.968Z,16.58
2017-09-01T05:26:11.071Z,16.57
2017-09-01T05:26:39.201Z,16.57
2017-09-01T05:27:07.234Z,16.62
2017-09-01T05:27:35.351Z,16.59
2017-09-01T05:28:03.270Z,16.54
2017-09-01T05:28:31.412Z,16.5
2017-09-01T05:28:59.407Z,16.62
2017-09-01T05:29:27.405Z,16.59
2017-09-01T05:29:55.295Z,16.54
2017-09-01T05:30:23.210Z,16.5
2017-09-01T05:30:51.320Z,16.58
2017-09-01T05:31:19.317Z,16.58
2017-09-01T05:31:47.030Z,16.59
2017-09-01T05:32:15.043Z,16.55
2017-09-01T05:32:42.977Z,16.54
2017-09-01T05:33:11.064Z,16.57
2017-09-01T05:33:38.958Z,16.58
2017-09-01T05:34:07.084Z,16.59
2017-09-01T05:34:35.184Z,16.57
2017-09-01T05:35:03.082Z,16.55
2017-09-01T05:35:31.076Z,16.59
2017-09-01T05:35:59.188Z,16.54
2017-09-01T05:36:27.102Z,16.62
2017-09-01T05:36:55.013Z,16.54
2017-09-01T05:37:23.097Z,16.49
2017-09-01T05:37:51.119Z,16.61
2017-09-01T05:38:19.213Z,16.51
2017-09-01T05:38:47.230Z,16.59
2017-09-01T05:39:15.149Z,16.62
2017-09-01T05:39:43.256Z,16.51
2017-09-01T05:40:11.054Z,16.59
2017-09-01T05:40:39.181Z,16.57
2017-09-01T05:41:07.195Z,16.57
2017-09-01T05:41:35.227Z,16.66
2017-09-01T05:42:03.240Z,16.64
2017-09-01T05:42:31.229Z,16.66
2017-09-01T05:42:59.226Z,16.64
2017-09-01T05:43:27.324Z,16.69
2017-09-01T05:43:55.314Z,16.72
2017-09-01T05:44:23.556Z,16.74
2017-09-01T05:44:51.471Z,16.65
2017-09-01T05:45:19.273Z,16.68
2017-09-01T05:45:47.363Z,16.68
2017-09-01T05:46:15.466Z,16.73
2017-09-01T05:46:43.474Z,16.72
2017-09-01T05:47:11.483Z,16.72
2017-09-01T05:47:39.504Z,16.72
2017-09-01T05:48:07.628Z,16.72
2017-09-01T05:48:35.512Z,16.79
2017-09-01T05:49:03.532Z,16.79
2017-09-01T05:49:31.624Z,16.79
2017-09-01T05:49:59.640Z,16.83
2017-09-01T05:50:27.639Z,16.79
2017-09-01T05:50:55.670Z,16.77
2017-09-01T05:51:23.685Z,16.76
2017-09-01T05:51:51.686Z,16.73
2017-09-01T05:52:19.805Z,16.76
2017-09-01T05:52:47.856Z,16.8
2017-09-01T05:53:15.964Z,16.8
2017-09-01T05:53:43.994Z,16.76
2017-09-01T05:54:12.003Z,16.77
2017-09-01T05:54:40.119Z,16.74
2017-09-01T05:55:08.206Z,16.86
2017-09-01T05:55:36.195Z,16.73
2017-09-01T05:56:04.205Z,16.77
2017-09-01T05:56:32.314Z,16.73
2017-09-01T05:57:00.441Z,16.82
2017-09-01T05:57:28.439Z,16.82
2017-09-01T05:57:56.430Z,16.77
2017-09-01T05:58:24.420Z,16.79
2017-09-01T05:58:52.535Z,16.82
2017-09-01T05:59:20.839Z,16.86
2017-09-01T05:59:48.958Z,16.77
2017-09-01T06:00:17.058Z,16.83
2017-09-01T06:00:45.132Z,16.83
2017-09-01T06:01:13.148Z,16.86
2017-09-01T06:01:41.086Z,16.8
2017-09-01T06:02:09.014Z,16.77
2017-09-01T06:02:37.046Z,16.77
2017-09-01T06:03:05.075Z,16.84
2017-09-01T06:03:33.080Z,16.82